createdAt,value
2019-04-20T00:03:05.542Z,16.63
2019-04-20T00:05:32.960Z,16.55
2019-04-20T00:08:01.174Z,16.58
2019-04-20T00:10:29.848Z,16.63
2019-04-20T00:13:09.203Z,16.67
2019-04-20T00:15:21.791Z,16.65
2019-04-20T00:17:55.074Z,16.61
2019-04-20T00:20:23.497Z,16.60
2019-04-20T00:22:52.449Z,16.61
2019-04-20T00:25:20.921Z,16.64
2019-04-20T00:28:13.061Z,16.64
2019-04-20T00:30:40.138Z,16.58
2019-04-20T00:32:55.586Z,16.58
2019-04-20T00:35:14.691Z,16.57
2019-04-20T00:37:42.914Z,16.50
2019-04-20T00:40:09.811Z,16.39
2019-04-20T00:42:43.320Z,16.36
2019-04-20T00:45:12.955Z,16.39
2019-04-20T00:47:41.911Z,16.27
2019-04-20T00:50:15.776Z,16.24
2019-04-20T00:52:41.140Z,16.22
2019-04-20T00:54:53.903Z,16.21
2019-04-20T00:57:34.026Z,16.21
2019-04-20T01:00:22.528Z,16.16
2019-04-20T01:02:29.921Z,16.28
2019-04-20T01:05:04.483Z,16.28
2019-04-20T01:07:33.080Z,16.31
2019-04-20T01:09:56.274Z,16.16
2019-04-20T01:12:28.074Z,16.16
2019-04-20T01:14:55.776Z,16.19
2019-04-20T01:17:18.429Z,16.22
2019-04-20T01:19:48.862Z,16.25
2019-04-20T01:22:18.455Z,16.23
2019-04-20T01:24:46.288Z,16.20
2019-04-20T01:27:24.842Z,16.09
2019-04-20T01:29:42.314Z,15.94
2019-04-20T01:32:18.427Z,15.82
2019-04-20T01:34:48.884Z,15.83
2019-04-20T01:37:18.149Z,15.79
2019-04-20T01:39:37.202Z,15.77
2019-04-20T01:41:58.192Z,15.80
2019-04-20T01:44:32.593Z,15.75
2019-04-20T01:46:57.951Z,15.77
2019-04-20T01:49:22.835Z,15.79
2019-04-20T01:51:57.399Z,15.77
2019-04-20T01:54:26.113Z,15.79
2019-04-20T01:56:53.392Z,15.72
2019-04-20T01:59:23.637Z,15.70
2019-04-20T02:01:45.517Z,15.68
2019-04-20T02:04:15.816Z,15.66
2019-04-20T02:06:43.555Z,15.63
2019-04-20T02:09:11.954Z,15.60
2019-04-20T02:11:38.421Z,15.48
2019-04-20T02:14:05.002Z,15.40
2019-04-20T02:16:35.718Z,15.35
2019-04-20T02:19:17.282Z,15.27
2019-04-20T02:21:39.751Z,15.20
2019-04-20T02:23:57.191Z,15.14
2019-04-20T02:26:19.855Z,15.06
2019-04-20T02:29:13.480Z,15.02
2019-04-20T02:34:33.236Z,15.00
2019-04-20T02:36:58.687Z,14.93
2019-04-20T02:39:31.038Z,14.86
2019-04-20T02:41:51.444Z,14.88
2019-04-20T02:46:51.006Z,14.76
2019-04-20T02:49:23.134Z,14.64
2019-04-20T02:51:42.037Z,14.60
2019-04-20T02:54:18.705Z,14.62
2019-04-20T02:56:45.366Z,14.62
2019-04-20T02:59:29.574Z,14.63
2019-04-20T03:01:32.431Z,14.62
2019-04-20T03:03:49.193Z,14.52
2019-04-20T03:06:23.341Z,14.50
2019-04-20T03:08:56.576Z,14.58
2019-04-20T03:11:29.482Z,14.64
2019-04-20T03:13:48.753Z,14.61
2019-04-20T03:16:16.689Z,14.45
2019-04-20T03:18:46.476Z,14.32
2019-04-20T03:21:19.654Z,14.30
2019-04-20T03:23:56.672Z,14.37
2019-04-20T03:26:11.043Z,14.38
2019-04-20T03:28:40.144Z,14.36
2019-04-20T03:31:41.527Z,14.34
2019-04-20T03:36:18.379Z,14.51
2019-04-20T03:38:34.835Z,14.53
2019-04-20T03:40:56.874Z,14.52
2019-04-20T03:43:08.100Z,14.51
2019-04-20T03:45:44.588Z,14.51
2019-04-20T03:48:12.627Z,14.48
2019-04-20T03:50:54.609Z,14.41
2019-04-20T03:53:20.961Z,14.38
2019-04-20T03:55:51.360Z,14.40
2019-04-20T03:58:18.618Z,14.40
2019-04-20T04:00:50.805Z,14.40
2019-04-20T04:03:41.079Z,14.29
2019-04-20T04:05:57.370Z,14.24
2019-04-20T04:08:20.480Z,14.26
2019-04-20T04:10:58.515Z,14.25
2019-04-20T04:13:09.586Z,14.20
2019-04-20T04:15:42.583Z,14.17
2019-04-20T04:18:10.270Z,14.10
2019-04-20T04:20:38.775Z,13.94
2019-04-20T04:23:15.073Z,13.74
2019-04-20T04:25:39.707Z,13.69
2019-04-20T04:28:10.820Z,13.76
2019-04-20T04:30:33.006Z,13.79
2019-04-20T04:33:33.561Z,13.78
2019-04-20T04:35:26.486Z,13.78
2019-04-20T04:38:02.581Z,13.85
2019-04-20T04:40:44.499Z,13.89
2019-04-20T04:42:57.989Z,13.91
2019-04-20T04:45:09.505Z,13.93
2019-04-20T04:47:34.548Z,13.93
2019-04-20T04:50:10.755Z,13.82
2019-04-20T04:52:40.768Z,13.82
2019-04-20T04:55:09.578Z,13.81
2019-04-20T04:57:24.274Z,13.88
2019-04-20T04:59:51.082Z,13.96
2019-04-20T05:05:27.607Z,13.95
2019-04-20T05:07:46.460Z,13.82
2019-04-20T05:09:59.175Z,13.90
2019-04-20T05:12:29.798Z,14.05
2019-04-20T05:15:03.978Z,14.15
2019-04-20T05:17:48.340Z,14.21
2019-04-20T05:25:30.975Z,14.25
2019-04-20T05:28:04.168Z,14.16
2019-04-20T05:30:10.003Z,14.13
2019-04-20T05:32:46.947Z,14.20
2019-04-20T05:35:26.775Z,14.28
2019-04-20T05:38:01.093Z,14.26
2019-04-20T05:40:23.738Z,14.32
2019-04-20T05:42:48.486Z,14.39
2019-04-20T05:45:11.785Z,14.51
2019-04-20T05:50:18.441Z,14.58
2019-04-20T05:52:52.119Z,14.62
2019-04-20T05:55:19.392Z,14.62
2019-04-20T05:57:42.665Z,14.63
2019-04-20T06:02:39.105Z,14.76
2019-04-20T06:05:05.658Z,14.74
2019-04-20T06:07:31.136Z,14.66
2019-04-20T06:10:02.662Z,14.42
2019-04-20T06:12:25.400Z,14.34
2019-04-20T06:14:47.021Z,14.43
2019-04-20T06:17:23.951Z,14.45
2019-04-20T06:19:44.150Z,14.52
2019-04-20T06:22:28.448Z,14.69
2019-04-20T06:25:19.233Z,14.77
2019-04-20T06:27:35.346Z,14.85
2019-04-20T06:29:56.893Z,14.93
2019-04-20T06:35:40.603Z,15.18
2019-04-20T06:38:04.652Z,15.11
2019-04-20T06:40:37.154Z,14.99
2019-04-20T06:42:48.155Z,14.93
2019-04-20T06:45:22.684Z,15.09
2019-04-20T06:47:47.088Z,15.25
2019-04-20T06:50:08.652Z,15.17
2019-04-20T06:55:38.271Z,15.52
2019-04-20T06:58:05.916Z,15.66
2019-04-20T07:00:25.998Z,15.71
2019-04-20T07:02:53.972Z,15.87
2019-04-20T07:07:54.601Z,16.05
2019-04-20T07:10:22.827Z,16.15
2019-04-20T07:12:43.730Z,16.34
2019-04-20T07:15:08.524Z,16.49
2019-04-20T07:17:57.715Z,16.65
2019-04-20T07:23:15.749Z,17.17
2019-04-20T07:25:33.224Z,17.08
2019-04-20T07:28:00.648Z,16.92
2019-04-20T07:30:28.601Z,16.89
2019-04-20T07:33:00.102Z,16.96
2019-04-20T07:35:21.692Z,17.09
2019-04-20T07:40:16.288Z,17.37
2019-04-20T07:42:49.201Z,17.54
2019-04-20T07:45:16.464Z,17.65
2019-04-20T07:47:41.497Z,17.80
2019-04-20T07:50:02.422Z,17.92
2019-04-20T07:52:12.218Z,17.95
2019-04-20T07:55:18.388Z,17.95
2019-04-20T07:57:25.669Z,17.96
2019-04-20T07:59:55.919Z,18.16
2019-04-20T08:02:35.099Z,18.35
2019-04-20T08:04:55.098Z,18.49
2019-04-20T08:07:08.722Z,18.50
2019-04-20T08:09:40.800Z,18.49
2019-04-20T08:12:25.649Z,18.54
2019-04-20T08:14:56.823Z,18.66
2019-04-20T08:17:21.317Z,18.76
2019-04-20T08:19:41.072Z,18.93
2019-04-20T08:22:15.555Z,18.97
2019-04-20T08:24:34.573Z,18.90
2019-04-20T08:26:50.309Z,19.02
2019-04-20T08:29:23.908Z,19.16
2019-04-20T08:32:08.496Z,19.30
2019-04-20T08:34:41.643Z,19.51
2019-04-20T08:37:00.950Z,19.67
2019-04-20T08:39:53.612Z,19.89
2019-04-20T08:41:57.563Z,19.98
2019-04-20T08:44:47.045Z,20.13
2019-04-20T08:46:59.649Z,20.34
2019-04-20T08:49:26.352Z,20.52
2019-04-20T08:51:58.855Z,20.54
2019-04-20T08:54:15.419Z,20.52
2019-04-20T08:56:31.868Z,20.64
2019-04-20T08:58:49.023Z,20.77
2019-04-20T09:01:24.220Z,20.90
2019-04-20T09:03:54.941Z,20.97
2019-04-20T09:06:30.774Z,21.01
2019-04-20T09:08:50.693Z,21.03
2019-04-20T09:11:26.081Z,21.03
2019-04-20T09:13:43.142Z,21.08
2019-04-20T09:16:04.214Z,21.04
2019-04-20T09:18:46.256Z,20.98
2019-04-20T09:21:07.740Z,20.95
2019-04-20T09:23:40.885Z,20.96
2019-04-20T09:26:29.429Z,21.09
2019-04-20T09:28:32.063Z,21.26
2019-04-20T09:31:12.225Z,21.31
2019-04-20T09:33:41.781Z,21.41
2019-04-20T09:36:10.229Z,21.52
2019-04-20T09:38:36.603Z,21.59
2019-04-20T09:41:10.063Z,21.61
2019-04-20T09:43:36.948Z,21.66
2019-04-20T09:46:08.091Z,21.66
2019-04-20T09:48:40.287Z,21.77
2019-04-20T09:51:20.285Z,21.95
2019-04-20T09:53:39.399Z,22.06
2019-04-20T09:56:14.381Z,22.21
2019-04-20T09:58:37.598Z,22.30
2019-04-20T10:01:02.227Z,22.40
2019-04-20T10:03:18.486Z,22.46
2019-04-20T10:05:45.478Z,22.52
2019-04-20T10:08:13.696Z,22.61
2019-04-20T10:10:43.579Z,22.70
2019-04-20T10:13:09.156Z,22.79
2019-04-20T10:15:35.798Z,22.91
2019-04-20T10:18:03.749Z,22.95
2019-04-20T10:20:33.484Z,22.98
2019-04-20T10:22:58.444Z,23.15
2019-04-20T10:25:26.658Z,23.16
2019-04-20T10:27:53.558Z,23.21
2019-04-20T10:30:20.791Z,23.33
2019-04-20T10:32:50.885Z,23.45
2019-04-20T10:35:17.500Z,23.60
2019-04-20T10:37:53.501Z,23.77
2019-04-20T10:40:32.644Z,23.86
2019-04-20T10:42:48.096Z,23.98
2019-04-20T10:45:15.022Z,24.10
2019-04-20T10:47:43.150Z,24.23
2019-04-20T10:50:11.195Z,24.28
2019-04-20T10:52:38.134Z,24.36
2019-04-20T10:55:06.170Z,24.53
2019-04-20T10:57:33.375Z,24.76
2019-04-20T11:00:01.598Z,24.79
2019-04-20T11:02:27.832Z,24.88
2019-04-20T11:04:56.877Z,25.03
2019-04-20T11:07:22.914Z,25.27
2019-04-20T11:10:02.552Z,25.39
2019-04-20T11:12:17.410Z,25.67
2019-04-20T11:14:45.706Z,25.79
2019-04-20T11:17:12.207Z,25.92
2019-04-20T11:19:39.248Z,26.22
2019-04-20T11:22:06.216Z,26.47
2019-04-20T11:24:32.647Z,26.51
2019-04-20T11:27:00.428Z,26.65
2019-04-20T11:29:26.665Z,26.89
2019-04-20T11:31:56.035Z,27.06
2019-04-20T11:34:23.605Z,27.16
2019-04-20T11:36:48.934Z,27.20
2019-04-20T11:39:16.732Z,27.44
2019-04-20T11:41:43.615Z,27.49
2019-04-20T11:44:11.595Z,27.69
2019-04-20T11:46:38.785Z,27.68
2019-04-20T11:49:05.662Z,27.69
2019-04-20T11:51:33.848Z,27.81
2019-04-20T11:54:00.588Z,27.92
2019-04-20T11:56:33.368Z,27.88
2019-04-20T11:58:56.634Z,27.31
2019-04-20T12:04:35.194Z,26.34
2019-04-20T12:06:48.752Z,26.04
2019-04-20T12:09:17.059Z,26.37
2019-04-20T12:11:56.234Z,27.11
2019-04-20T12:14:12.472Z,27.18
2019-04-20T12:16:39.615Z,27.26
2019-04-20T12:19:06.418Z,27.94
2019-04-20T12:21:34.769Z,27.92
2019-04-20T12:24:02.389Z,27.84
2019-04-20T12:26:29.022Z,28.22
2019-04-20T12:28:56.117Z,28.47
2019-04-20T12:31:27.167Z,28.51
2019-04-20T12:33:52.513Z,28.54
2019-04-20T12:36:18.656Z,28.78
2019-04-20T12:38:46.364Z,28.96
2019-04-20T12:41:14.431Z,28.99
2019-04-20T12:43:41.531Z,29.28
2019-04-20T12:46:09.738Z,29.49
2019-04-20T12:48:37.714Z,29.61
2019-04-20T12:51:05.708Z,29.82
2019-04-20T12:53:32.746Z,29.93
2019-04-20T12:55:59.579Z,29.96
2019-04-20T12:58:28.323Z,30.01
2019-04-20T13:00:54.518Z,29.96
2019-04-20T13:03:23.596Z,29.95
2019-04-20T13:05:51.888Z,29.96
2019-04-20T13:08:28.590Z,29.90
2019-04-20T13:10:46.577Z,29.89
2019-04-20T13:13:18.617Z,29.94
2019-04-20T13:16:00.711Z,30.07
2019-04-20T13:18:30.699Z,29.88
2019-04-20T13:20:59.666Z,29.91
2019-04-20T13:23:26.761Z,30.10
2019-04-20T13:25:53.170Z,30.02
2019-04-20T13:28:21.176Z,29.25
2019-04-20T13:30:48.175Z,28.43
2019-04-20T13:33:15.620Z,28.09
2019-04-20T13:35:43.882Z,27.79
2019-04-20T13:38:11.961Z,27.47
2019-04-20T13:40:39.718Z,27.87
2019-04-20T13:43:05.880Z,28.76
2019-04-20T13:45:33.240Z,29.39
2019-04-20T13:48:01.139Z,29.87
2019-04-20T13:50:29.397Z,30.12
2019-04-20T13:52:56.527Z,30.12
2019-04-20T13:55:24.916Z,29.99
2019-04-20T13:57:55.891Z,29.74
2019-04-20T14:00:33.866Z,29.47
2019-04-20T14:03:03.230Z,28.87
2019-04-20T14:05:30.841Z,28.33
2019-04-20T14:07:59.591Z,28.08
2019-04-20T14:10:27.025Z,28.07
2019-04-20T14:13:01.662Z,27.83
2019-04-20T14:15:20.780Z,28.04
2019-04-20T14:17:48.942Z,28.07
2019-04-20T14:20:19.112Z,28.22
2019-04-20T14:22:43.290Z,28.26
2019-04-20T14:25:11.142Z,28.21
2019-04-20T14:27:39.052Z,28.19
2019-04-20T14:30:06.766Z,28.16
2019-04-20T14:32:34.585Z,27.88
2019-04-20T14:35:03.028Z,27.83
2019-04-20T14:37:29.270Z,27.77
2019-04-20T14:39:56.734Z,27.97
2019-04-20T14:42:34.458Z,28.08
2019-04-20T14:44:52.083Z,27.77
2019-04-20T14:47:19.271Z,27.78
2019-04-20T14:49:48.603Z,27.85
2019-04-20T14:52:15.497Z,27.95
2019-04-20T14:54:43.609Z,28.30
2019-04-20T14:57:10.104Z,28.21
2019-04-20T14:59:38.266Z,27.75
2019-04-20T15:02:06.535Z,27.40
2019-04-20T15:04:34.873Z,27.18
2019-04-20T15:07:02.528Z,27.12
2019-04-20T15:09:31.080Z,27.01
2019-04-20T15:11:57.447Z,26.97
2019-04-20T15:14:24.954Z,26.99
2019-04-20T15:16:52.848Z,27.10
2019-04-20T15:19:21.195Z,27.12
2019-04-20T15:21:49.475Z,26.92
2019-04-20T15:24:17.747Z,26.81
2019-04-20T15:26:44.505Z,26.91
2019-04-20T15:29:12.508Z,26.87
2019-04-20T15:31:39.126Z,26.75
2019-04-20T15:34:06.854Z,26.59
2019-04-20T15:36:34.140Z,26.63
2019-04-20T15:39:02.997Z,26.63
2019-04-20T15:41:29.400Z,26.56
2019-04-20T15:43:57.399Z,26.49
2019-04-20T15:46:25.494Z,26.51
2019-04-20T15:48:52.369Z,26.47
2019-04-20T15:51:19.461Z,26.32
2019-04-20T15:53:47.494Z,26.30
2019-04-20T15:56:14.922Z,26.27
2019-04-20T15:58:42.395Z,26.29
2019-04-20T16:01:10.418Z,26.37
2019-04-20T16:03:43.480Z,26.40
2019-04-20T16:06:11.357Z,26.43
2019-04-20T16:08:38.787Z,26.50
2019-04-20T16:11:06.826Z,26.40
2019-04-20T16:13:38.074Z,26.19
2019-04-20T16:16:01.541Z,26.00
2019-04-20T16:18:27.960Z,25.98
2019-04-20T16:21:04.975Z,25.91
2019-04-20T16:23:22.899Z,25.83
2019-04-20T16:25:57.591Z,25.74
2019-04-20T16:28:25.677Z,25.70
2019-04-20T16:30:52.021Z,25.79
2019-04-20T16:33:20.665Z,25.70
2019-04-20T16:35:46.947Z,25.63
2019-04-20T16:38:14.387Z,25.55
2019-04-20T16:40:42.082Z,25.39
2019-04-20T16:43:17.996Z,25.33
2019-04-20T16:45:37.188Z,25.19
2019-04-20T16:48:05.483Z,25.10
2019-04-20T16:50:33.048Z,25.12
2019-04-20T16:52:59.398Z,25.21
2019-04-20T16:55:26.978Z,25.12
2019-04-20T16:57:55.471Z,24.97
2019-04-20T17:00:23.138Z,24.83
2019-04-20T17:02:50.109Z,24.69
2019-04-20T17:05:16.965Z,24.46
2019-04-20T17:07:44.994Z,24.30
2019-04-20T17:10:13.680Z,24.11
2019-04-20T17:12:40.069Z,23.94
2019-04-20T17:15:07.600Z,23.81
2019-04-20T17:17:35.816Z,23.78
2019-04-20T17:20:03.747Z,23.72
2019-04-20T17:22:30.169Z,23.64
2019-04-20T17:24:58.265Z,23.56
2019-04-20T17:27:26.844Z,23.43
2019-04-20T17:30:08.823Z,23.32
2019-04-20T17:32:37.161Z,23.28
2019-04-20T17:35:19.338Z,23.31
2019-04-20T17:37:38.848Z,23.31
2019-04-20T17:40:18.777Z,23.36
2019-04-20T17:42:40.127Z,23.34
2019-04-20T17:45:02.668Z,23.28
2019-04-20T17:47:37.275Z,23.24
2019-04-20T17:50:05.262Z,23.29
2019-04-20T17:52:36.511Z,23.30
2019-04-20T17:54:49.487Z,23.27
2019-04-20T17:57:17.141Z,23.23
2019-04-20T17:59:47.252Z,23.18
2019-04-20T18:02:30.658Z,23.07
2019-04-20T18:05:12.718Z,22.93
2019-04-20T18:07:36.710Z,22.78
2019-04-20T18:10:03.147Z,22.66
2019-04-20T18:12:20.767Z,22.46
2019-04-20T18:14:52.028Z,22.33
2019-04-20T18:17:17.740Z,22.30
2019-04-20T18:19:34.724Z,22.26
2019-04-20T18:22:01.393Z,22.17
2019-04-20T18:24:49.891Z,22.11
2019-04-20T18:27:16.148Z,22.06
2019-04-20T18:29:42.910Z,21.98
2019-04-20T18:31:51.453Z,21.93
2019-04-20T18:34:22.056Z,21.86
2019-04-20T18:36:47.710Z,21.81
2019-04-20T18:39:16.155Z,21.78
2019-04-20T18:41:48.592Z,21.78
2019-04-20T18:44:08.611Z,21.78
2019-04-20T18:47:00.672Z,21.68
2019-04-20T18:49:18.192Z,21.56
2019-04-20T18:51:30.806Z,21.40
2019-04-20T18:54:05.616Z,21.31
2019-04-20T18:56:33.032Z,21.26
2019-04-20T18:58:53.508Z,21.23
2019-04-20T19:01:28.152Z,21.12
2019-04-20T19:03:49.420Z,21.11
2019-04-20T19:06:16.264Z,21.07
2019-04-20T19:08:48.539Z,21.10
2019-04-20T19:11:15.274Z,21.09
2019-04-20T19:13:45.912Z,21.08
2019-04-20T19:19:20.126Z,21.51
2019-04-20T19:21:35.664Z,21.49
2019-04-20T19:24:10.419Z,21.42
2019-04-20T19:26:32.084Z,21.32
2019-04-20T19:29:09.598Z,21.25
2019-04-20T19:31:43.596Z,21.19
2019-04-20T19:34:13.080Z,21.02
2019-04-20T19:36:31.923Z,20.82
2019-04-20T19:39:01.357Z,20.71
2019-04-20T19:41:29.856Z,20.62
2019-04-20T19:43:56.378Z,20.47
2019-04-20T19:48:49.370Z,20.25
2019-04-20T19:51:29.751Z,20.27
2019-04-20T19:53:58.691Z,20.26
2019-04-20T19:56:16.619Z,20.18
2019-04-20T19:58:41.307Z,20.20
2019-04-20T20:00:59.099Z,20.20
2019-04-20T20:03:24.002Z,20.11
2019-04-20T20:05:53.862Z,19.97
2019-04-20T20:08:23.701Z,19.91
2019-04-20T20:10:46.291Z,19.74
2019-04-20T20:13:14.982Z,19.67
2019-04-20T20:15:43.208Z,19.65
2019-04-20T20:18:27.500Z,19.64
2019-04-20T20:20:55.535Z,19.60
2019-04-20T20:23:03.847Z,19.62
2019-04-20T20:25:37.313Z,19.68
2019-04-20T20:28:13.468Z,19.70
2019-04-20T20:30:32.858Z,19.78
2019-04-20T20:33:14.805Z,19.88
2019-04-20T20:35:26.041Z,19.98
2019-04-20T20:37:55.655Z,20.05
2019-04-20T20:40:25.352Z,20.07
2019-04-20T20:42:56.568Z,20.04
2019-04-20T20:45:22.687Z,20.01
2019-04-20T20:48:00.012Z,19.97
2019-04-20T20:50:29.956Z,19.87
2019-04-20T20:52:49.601Z,19.60
2019-04-20T20:55:14.731Z,19.39
2019-04-20T20:57:40.899Z,19.28
2019-04-20T21:00:04.633Z,19.27
2019-04-20T21:02:41.372Z,19.27
2019-04-20T21:04:53.533Z,19.22
2019-04-20T21:07:20.590Z,19.13
2019-04-20T21:09:48.340Z,19.04
2019-04-20T21:12:18.079Z,18.97
2019-04-20T21:14:44.234Z,18.88
2019-04-20T21:17:17.627Z,18.82
2019-04-20T21:19:54.999Z,18.84
2019-04-20T21:22:13.422Z,18.73
2019-04-20T21:24:45.407Z,18.70
2019-04-20T21:27:14.669Z,18.63
2019-04-20T21:29:44.481Z,18.57
2019-04-20T21:32:10.908Z,18.56
2019-04-20T21:34:33.239Z,18.63
2019-04-20T21:37:07.919Z,18.69
2019-04-20T21:39:39.168Z,18.75
2019-04-20T21:42:05.385Z,18.82
2019-04-20T21:44:35.114Z,18.85
2019-04-20T21:46:58.606Z,18.70
2019-04-20T21:49:42.276Z,18.69
2019-04-20T21:52:03.544Z,18.67
2019-04-20T21:54:30.020Z,18.62
2019-04-20T21:57:03.089Z,18.67
2019-04-20T21:59:35.211Z,18.65
2019-04-20T22:02:09.790Z,18.63
2019-04-20T22:04:27.188Z,18.48
2019-04-20T22:06:54.444Z,18.36
2019-04-20T22:09:27.141Z,18.32
2019-04-20T22:11:49.777Z,18.32
2019-04-20T22:14:21.000Z,18.30
2019-04-20T22:16:49.541Z,18.27
2019-04-20T22:19:28.450Z,18.19
2019-04-20T22:21:54.352Z,18.09
2019-04-20T22:24:25.240Z,18.09
2019-04-20T22:26:51.601Z,18.07
2019-04-20T22:29:02.457Z,18.07
2019-04-20T22:31:36.023Z,18.04
2019-04-20T22:34:07.707Z,18.06
2019-04-20T22:36:36.684Z,18.00
2019-04-20T22:42:01.179Z,18.02
2019-04-20T22:44:26.697Z,17.93
2019-04-20T22:46:52.225Z,17.87
2019-04-20T22:49:35.929Z,17.81
2019-04-20T22:51:58.173Z,17.71
2019-04-20T22:54:29.723Z,17.71
2019-04-20T22:56:55.150Z,17.69
2019-04-20T22:59:13.850Z,17.63
2019-04-20T23:01:44.364Z,17.56
2019-04-20T23:04:04.360Z,17.60
2019-04-20T23:06:36.067Z,17.63
2019-04-20T23:09:03.201Z,17.68
2019-04-20T23:11:29.157Z,17.56
2019-04-20T23:13:54.246Z,17.41
2019-04-20T23:16:22.701Z,17.19
2019-04-20T23:18:49.979Z,17.20
2019-04-20T23:21:17.616Z,17.18
2019-04-20T23:23:45.619Z,17.23
2019-04-20T23:26:12.669Z,17.32
2019-04-20T23:28:45.925Z,17.30
2019-04-20T23:31:12.259Z,17.17
2019-04-20T23:33:34.176Z,17.17
2019-04-20T23:36:04.550Z,17.06
2019-04-20T23:38:30.546Z,17.08
2019-04-20T23:40:57.685Z,17.03
2019-04-20T23:43:29.019Z,17.08
2019-04-20T23:48:56.247Z,17.16
2019-04-20T23:51:41.441Z,16.98
2019-04-20T23:54:01.220Z,16.82
2019-04-20T23:56:20.519Z,16.76
2019-04-20T23:58:51.107Z,16.76
